Terminal Aerodrome Forecast
Issued by NWS

Home | Current Version | Previous Version | Text Only | Print | Product List | Glossary On
Versions: 1 2 3 4 5 6 7 8 9 10 11 12 13 14 15
554
FTAK31 PAJN 020536
TAFAGY
TAF
PAGY 020536Z 0206/0306 VRB04KT 6SM -RA BR FEW006 SCT015 OVC035
      TEMPO 0206/0210 3SM -RA BR SCT004 BKN012 OVC030
     FM021000 VRB04KT 3SM RA BR SCT004 BKN010 OVC020
     FM021800 20015G25KT P6SM -SHRA SCT015 OVC035
      AMD LTD TO CLD VIS AND WIND=

USA.gov is the U.S. government's official web portal to all federal, state and local government web resources and services.